createdAt,value
2022-10-20T00:03:20.119Z,48.20
2022-10-20T00:08:35.439Z,48.20
2022-10-20T00:13:50.283Z,48.30
2022-10-20T00:19:05.336Z,48.60
2022-10-20T00:24:20.307Z,48.80
2022-10-20T00:29:35.316Z,48.60
2022-10-20T00:34:50.657Z,48.40
2022-10-20T00:40:06.588Z,48.30
2022-10-20T00:45:22.347Z,48.10
2022-10-20T00:50:37.321Z,48.30
2022-10-20T00:55:52.321Z,48.20
2022-10-20T01:01:07.656Z,48.20
2022-10-20T01:07:01.640Z,48.10
2022-10-20T01:12:17.736Z,48.30
2022-10-20T01:17:33.481Z,48.30
2022-10-20T01:22:49.277Z,48.20
2022-10-20T01:28:04.332Z,48.10
2022-10-20T01:33:19.328Z,48.10
2022-10-20T01:38:34.309Z,48.10
2022-10-20T01:43:49.319Z,48.10
2022-10-20T01:49:04.299Z,48.00
2022-10-20T01:54:19.312Z,48.10
2022-10-20T01:59:34.343Z,48.10
2022-10-20T02:04:49.598Z,48.10
2022-10-20T02:10:05.571Z,48.10
2022-10-20T02:15:22.536Z,48.00
2022-10-20T02:20:38.292Z,48.00
2022-10-20T02:25:53.062Z,48.00
2022-10-20T02:31:12.644Z,47.90
2022-10-20T02:36:28.321Z,48.00
2022-10-20T02:41:43.282Z,48.00
2022-10-20T02:46:58.305Z,48.00
2022-10-20T02:52:13.292Z,48.40
2022-10-20T02:57:28.315Z,48.30
2022-10-20T03:02:43.090Z,48.20
2022-10-20T03:07:58.290Z,48.20
2022-10-20T03:13:13.380Z,48.00
2022-10-20T03:18:28.616Z,48.20
2022-10-20T03:23:44.610Z,48.00
2022-10-20T03:29:00.310Z,48.00
2022-10-20T03:34:15.129Z,48.10
2022-10-20T03:39:30.314Z,48.60
2022-10-20T03:44:45.602Z,48.40
2022-10-20T03:50:01.377Z,48.40
2022-10-20T03:55:16.286Z,48.50
2022-10-20T04:00:31.368Z,48.40
2022-10-20T04:05:46.606Z,48.60
2022-10-20T04:11:02.381Z,48.60
2022-10-20T04:16:17.369Z,48.70
2022-10-20T04:21:32.374Z,48.10
2022-10-20T04:26:47.442Z,47.70
2022-10-20T04:32:02.312Z,47.50
2022-10-20T04:37:17.376Z,47.30
2022-10-20T04:42:32.645Z,47.30
2022-10-20T04:47:48.372Z,47.10
2022-10-20T04:53:03.678Z,47.10
2022-10-20T04:58:19.339Z,47.30
2022-10-20T05:03:34.662Z,47.30
2022-10-20T05:08:50.367Z,47.30
2022-10-20T05:14:05.322Z,47.40
2022-10-20T05:19:20.311Z,47.40
2022-10-20T05:24:35.370Z,47.60
2022-10-20T05:29:50.357Z,47.60
2022-10-20T05:35:05.338Z,47.60
2022-10-20T05:40:20.342Z,47.60
2022-10-20T05:45:35.313Z,47.60
2022-10-20T05:50:50.710Z,47.70
2022-10-20T05:56:06.308Z,47.60
2022-10-20T06:01:21.545Z,47.50
2022-10-20T06:06:37.432Z,47.50
2022-10-20T06:11:52.850Z,47.50
2022-10-20T06:17:08.319Z,47.30
2022-10-20T06:22:23.282Z,47.30
2022-10-20T06:27:38.419Z,47.40
2022-10-20T06:32:53.394Z,47.50
2022-10-20T06:38:08.358Z,47.50
2022-10-20T06:43:24.324Z,47.50
2022-10-20T06:48:40.328Z,47.60
2022-10-20T06:53:55.339Z,47.60
2022-10-20T06:59:10.604Z,47.60
2022-10-20T07:04:26.308Z,47.50
2022-10-20T07:09:41.679Z,47.40
2022-10-20T07:14:57.588Z,47.50
2022-10-20T07:20:13.318Z,48.10
2022-10-20T07:25:28.322Z,47.60
2022-10-20T07:30:43.371Z,47.50
2022-10-20T07:35:58.297Z,47.60
2022-10-20T07:41:13.077Z,47.60
2022-10-20T07:46:28.386Z,47.70
2022-10-20T07:51:43.440Z,47.70
2022-10-20T07:56:58.705Z,47.80
2022-10-20T08:02:14.604Z,47.70
2022-10-20T08:07:30.367Z,47.80
2022-10-20T08:12:45.325Z,47.80
2022-10-20T08:18:00.874Z,47.80
2022-10-20T08:23:16.632Z,47.80
2022-10-20T08:28:32.328Z,47.90
2022-10-20T08:33:52.144Z,48.50
2022-10-20T08:39:09.568Z,47.90
2022-10-20T08:44:24.351Z,47.90
2022-10-20T08:49:39.436Z,47.90
2022-10-20T08:54:55.536Z,47.80
2022-10-20T09:00:10.330Z,47.80
2022-10-20T09:05:25.304Z,47.80
2022-10-20T09:10:40.639Z,47.80
2022-10-20T09:15:56.354Z,47.90
2022-10-20T09:21:11.349Z,47.90
2022-10-20T09:26:44.986Z,47.90
2022-10-20T09:32:16.694Z,47.90
2022-10-20T09:37:36.422Z,47.90
2022-10-20T09:42:51.360Z,48.00
2022-10-20T09:48:06.397Z,48.10
2022-10-20T09:53:21.341Z,48.10
2022-10-20T09:58:36.612Z,48.20
2022-10-20T10:03:52.323Z,48.20
2022-10-20T10:09:07.881Z,48.30
2022-10-20T10:14:23.340Z,48.40
2022-10-20T10:19:38.449Z,48.40
2022-10-20T10:24:53.670Z,48.50
2022-10-20T10:30:09.370Z,48.60
2022-10-20T10:35:24.816Z,48.70
2022-10-20T10:40:40.680Z,48.70
2022-10-20T10:45:56.409Z,49.30
2022-10-20T10:51:11.314Z,48.80
2022-10-20T10:56:26.341Z,48.90
2022-10-20T11:01:41.633Z,48.90
2022-10-20T11:06:58.191Z,49.00
2022-10-20T11:12:13.345Z,49.20
2022-10-20T11:17:28.350Z,49.20
2022-10-20T11:22:43.410Z,49.20
2022-10-20T11:27:58.447Z,49.30
2022-10-20T11:33:14.447Z,49.40
2022-10-20T11:38:29.707Z,49.50
2022-10-20T11:43:45.332Z,49.60
2022-10-20T11:49:03.948Z,49.70
2022-10-20T11:54:19.366Z,49.80
2022-10-20T11:59:34.416Z,49.90
2022-10-20T12:04:49.363Z,50.00
2022-10-20T12:10:04.373Z,50.10
2022-10-20T12:15:19.856Z,50.10
2022-10-20T12:20:35.349Z,50.20
2022-10-20T12:25:50.339Z,50.30
2022-10-20T12:31:05.732Z,50.30
2022-10-20T12:36:21.578Z,50.40
2022-10-20T12:41:37.643Z,50.50
2022-10-20T12:46:53.674Z,50.70
2022-10-20T12:52:09.366Z,50.70
2022-10-20T12:57:24.131Z,50.80
2022-10-20T13:02:39.243Z,50.90
2022-10-20T13:07:54.376Z,51.00
2022-10-20T13:13:09.393Z,51.00
2022-10-20T13:18:24.354Z,51.10
2022-10-20T13:23:39.406Z,51.20
2022-10-20T13:28:54.424Z,51.20
2022-10-20T13:34:09.324Z,51.30
2022-10-20T13:39:24.361Z,51.40
2022-10-20T13:44:39.340Z,51.40
2022-10-20T13:49:54.336Z,52.20
2022-10-20T13:55:09.355Z,51.60
2022-10-20T14:00:24.393Z,51.70
2022-10-20T14:05:39.386Z,51.70
2022-10-20T14:10:54.436Z,51.80
2022-10-20T14:16:09.125Z,51.80
2022-10-20T14:21:24.670Z,51.80
2022-10-20T14:26:40.394Z,51.90
2022-10-20T14:31:55.722Z,52.00
2022-10-20T14:37:11.460Z,52.00
2022-10-20T14:42:26.378Z,52.10
2022-10-20T14:47:41.359Z,52.10
2022-10-20T14:52:56.364Z,52.30
2022-10-20T14:58:11.383Z,52.40
2022-10-20T15:03:26.441Z,52.50
2022-10-20T15:08:41.498Z,52.70
2022-10-20T15:13:56.379Z,53.00
2022-10-20T15:19:11.174Z,53.30
2022-10-20T15:24:26.362Z,53.50
2022-10-20T15:29:41.407Z,53.60
2022-10-20T15:34:56.212Z,53.70
2022-10-20T15:40:11.398Z,53.90
2022-10-20T15:45:26.422Z,53.90
2022-10-20T15:50:41.390Z,54.00
2022-10-20T15:55:56.359Z,54.10
2022-10-20T16:01:11.443Z,54.20
2022-10-20T16:06:26.360Z,54.10
2022-10-20T16:11:41.264Z,54.20
2022-10-20T16:16:58.679Z,54.20
2022-10-20T16:22:14.376Z,54.30
2022-10-20T16:27:29.365Z,54.30
2022-10-20T16:32:44.672Z,54.40
2022-10-20T16:38:00.220Z,54.40
2022-10-20T16:43:15.400Z,54.40
2022-10-20T16:48:30.415Z,54.50
2022-10-20T16:53:45.702Z,54.50
2022-10-20T16:59:01.394Z,54.50
2022-10-20T17:04:17.702Z,55.10
2022-10-20T17:09:33.365Z,55.40
2022-10-20T17:14:48.191Z,55.50
2022-10-20T17:20:04.345Z,55.50
2022-10-20T17:25:19.390Z,55.60
2022-10-20T17:30:34.130Z,55.60
2022-10-20T17:35:49.437Z,55.60
2022-10-20T17:41:04.409Z,55.60
2022-10-20T17:46:19.372Z,55.60
2022-10-20T17:51:34.990Z,55.60
2022-10-20T17:56:50.435Z,55.60
2022-10-20T18:02:05.664Z,55.60
2022-10-20T18:07:22.356Z,55.50
2022-10-20T18:12:37.300Z,55.60
2022-10-20T18:17:52.429Z,55.50
2022-10-20T18:23:07.395Z,55.60
2022-10-20T18:28:22.386Z,55.50
2022-10-20T18:33:37.386Z,55.50
2022-10-20T18:38:52.411Z,55.60
2022-10-20T18:44:07.717Z,55.50
2022-10-20T18:49:23.856Z,56.10
2022-10-20T18:54:39.386Z,55.50
2022-10-20T18:59:54.731Z,55.50
2022-10-20T19:05:10.663Z,55.60
2022-10-20T19:10:26.411Z,55.60
2022-10-20T19:15:41.367Z,55.50
2022-10-20T19:20:56.397Z,55.60
2022-10-20T19:26:12.725Z,55.50
2022-10-20T19:31:28.369Z,55.80
2022-10-20T19:36:43.127Z,55.60
2022-10-20T19:41:58.721Z,55.50
2022-10-20T19:47:14.439Z,55.40
2022-10-20T19:52:29.711Z,55.40
2022-10-20T19:57:45.673Z,55.30
2022-10-20T20:03:01.147Z,55.20
2022-10-20T20:08:16.709Z,55.20
2022-10-20T20:13:32.475Z,55.20
2022-10-20T20:18:47.470Z,55.20
2022-10-20T20:24:02.377Z,55.30
2022-10-20T20:29:17.423Z,55.30
2022-10-20T20:34:32.383Z,55.50
2022-10-20T20:39:47.365Z,55.20
2022-10-20T20:45:02.393Z,55.20
2022-10-20T20:50:17.370Z,55.20
2022-10-20T20:55:32.219Z,55.10
2022-10-20T21:00:47.491Z,55.10
2022-10-20T21:06:02.414Z,55.10
2022-10-20T21:11:17.745Z,55.10
2022-10-20T21:16:33.397Z,55.30
2022-10-20T21:21:48.401Z,55.40
2022-10-20T21:27:03.460Z,55.50
2022-10-20T21:32:18.425Z,55.60
2022-10-20T21:37:33.418Z,55.70
2022-10-20T21:42:48.737Z,55.60
2022-10-20T21:48:04.448Z,55.70
2022-10-20T21:53:19.413Z,55.60
2022-10-20T21:58:34.655Z,55.50
2022-10-20T22:03:50.136Z,55.40
2022-10-20T22:09:05.586Z,55.40
2022-10-20T22:14:20.782Z,55.30
2022-10-20T22:19:36.392Z,55.20
2022-10-20T22:24:51.442Z,55.10
2022-10-20T22:30:07.674Z,55.20
2022-10-20T22:35:23.442Z,55.20
2022-10-20T22:40:38.468Z,55.10
2022-10-20T22:45:53.736Z,55.10
2022-10-20T22:51:09.385Z,55.10
2022-10-20T22:56:24.403Z,55.10
2022-10-20T23:01:39.390Z,55.20
2022-10-20T23:06:54.399Z,55.20
2022-10-20T23:12:09.373Z,55.40
2022-10-20T23:17:24.653Z,55.20
2022-10-20T23:22:39.457Z,55.00
2022-10-20T23:27:54.426Z,54.90
2022-10-20T23:33:09.405Z,54.80
2022-10-20T23:38:24.671Z,54.80
2022-10-20T23:43:40.384Z,54.70
2022-10-20T23:48:55.406Z,54.60
2022-10-20T23:54:10.430Z,54.60
2022-10-20T23:59:25.424Z,54.80
